aviador You're here:

LDOS Decoded Metar

OSIJEK in CROATIA
Report Time2017-11-25 03:30:00
UTC Time2017-11-25 03:47:32
Flight Rules lifr LIFR
Wind100° at 04 kt
W.Decomp.*RWY 11: 3.9 kt HW 0.9 kt LCW
W.Rank100° ranks 8
Current wind is below 100° avg. (5.9)
Visibility0100 m
Phenomena:Fog
Clouds:N/A
Ceiling100 ft
Temp02°C (ISA -12)
Dew Point02°C (100% RH)
AAT-1.1°C
QNH1019 hPa
Density Alt-1,325 ft
Elevation292 ft
Report Wrong Elevation
Raw Report
LDOS 250330Z 10004KT 0100 FG VV001 02/02 Q1019=

Extra information for LDOS:More info

Metar Taf Metar & Taf Last 4 Metars F.Rules Stats Wind Profile Meteogram Temp Stats Airport Information Weather charts Add Link Nearby VenuesMetar ALERT Operation Metar Decoded Social comments